sensor_id;sensor_type;location;lat;lon;timestamp;P1;durP1;ratioP1;P2;durP2;ratioP2
70450;SDS011;58869;51.982;4.450;2023-04-25T00:01:31;8.08;;;6.41;;
70450;SDS011;58869;51.982;4.450;2023-04-25T00:04:01;7.97;;;6.34;;
70450;SDS011;58869;51.982;4.450;2023-04-25T00:06:27;7.91;;;6.44;;
70450;SDS011;58869;51.982;4.450;2023-04-25T00:08:54;8.22;;;6.50;;
70450;SDS011;58869;51.982;4.450;2023-04-25T00:11:21;8.60;;;6.77;;
70450;SDS011;58869;51.982;4.450;2023-04-25T00:13:47;8.68;;;6.78;;
70450;SDS011;58869;51.982;4.450;2023-04-25T00:16:13;8.78;;;6.96;;
70450;SDS011;58869;51.982;4.450;2023-04-25T00:18:41;7.74;;;6.19;;
70450;SDS011;58869;51.982;4.450;2023-04-25T00:21:10;7.70;;;6.18;;
70450;SDS011;58869;51.982;4.450;2023-04-25T00:23:35;7.84;;;6.25;;
70450;SDS011;58869;51.982;4.450;2023-04-25T00:26:01;7.69;;;6.27;;
70450;SDS011;58869;51.982;4.450;2023-04-25T00:28:28;6.97;;;5.81;;
70450;SDS011;58869;51.982;4.450;2023-04-25T00:31:06;6.73;;;5.67;;
70450;SDS011;58869;51.982;4.450;2023-04-25T00:33:32;6.74;;;5.65;;
70450;SDS011;58869;51.982;4.450;2023-04-25T00:35:57;6.72;;;5.65;;
70450;SDS011;58869;51.982;4.450;2023-04-25T00:38:24;7.18;;;5.74;;
70450;SDS011;58869;51.982;4.450;2023-04-25T00:40:52;7.08;;;5.70;;
70450;SDS011;58869;51.982;4.450;2023-04-25T00:43:19;6.80;;;5.60;;
70450;SDS011;58869;51.982;4.450;2023-04-25T00:45:46;6.55;;;5.48;;
70450;SDS011;58869;51.982;4.450;2023-04-25T00:48:13;5.77;;;4.86;;
70450;SDS011;58869;51.982;4.450;2023-04-25T00:50:40;5.80;;;4.90;;
70450;SDS011;58869;51.982;4.450;2023-04-25T00:53:06;5.83;;;4.87;;
70450;SDS011;58869;51.982;4.450;2023-04-25T00:55:32;5.60;;;4.81;;
70450;SDS011;58869;51.982;4.450;2023-04-25T00:58:01;5.91;;;5.02;;
70450;SDS011;58869;51.982;4.450;2023-04-25T01:00:26;6.23;;;5.22;;
70450;SDS011;58869;51.982;4.450;2023-04-25T01:02:53;5.87;;;4.99;;
70450;SDS011;58869;51.982;4.450;2023-04-25T01:05:18;6.60;;;5.49;;
70450;SDS011;58869;51.982;4.450;2023-04-25T01:07:44;6.14;;;5.12;;
70450;SDS011;58869;51.982;4.450;2023-04-25T01:10:10;6.13;;;5.07;;
70450;SDS011;58869;51.982;4.450;2023-04-25T01:12:36;6.30;;;5.25;;
70450;SDS011;58869;51.982;4.450;2023-04-25T01:15:02;6.14;;;5.12;;
70450;SDS011;58869;51.982;4.450;2023-04-25T01:17:30;5.90;;;5.00;;
70450;SDS011;58869;51.982;4.450;2023-04-25T01:20:07;6.10;;;5.12;;
70450;SDS011;58869;51.982;4.450;2023-04-25T01:22:40;6.52;;;5.34;;
70450;SDS011;58869;51.982;4.450;2023-04-25T01:25:06;5.99;;;4.94;;
70450;SDS011;58869;51.982;4.450;2023-04-25T01:34:12;5.76;;;4.90;;
70450;SDS011;58869;51.982;4.450;2023-04-25T01:36:41;5.62;;;4.78;;
70450;SDS011;58869;51.982;4.450;2023-04-25T01:39:09;5.67;;;4.89;;
70450;SDS011;58869;51.982;4.450;2023-04-25T01:41:44;5.40;;;4.72;;
70450;SDS011;58869;51.982;4.450;2023-04-25T01:44:11;5.66;;;4.84;;
70450;SDS011;58869;51.982;4.450;2023-04-25T01:46:48;5.82;;;4.92;;
70450;SDS011;58869;51.982;4.450;2023-04-25T01:49:14;5.40;;;4.71;;
70450;SDS011;58869;51.982;4.450;2023-04-25T01:51:39;5.52;;;4.72;;
70450;SDS011;58869;51.982;4.450;2023-04-25T01:54:08;5.70;;;4.89;;
70450;SDS011;58869;51.982;4.450;2023-04-25T01:56:37;5.36;;;4.61;;
70450;SDS011;58869;51.982;4.450;2023-04-25T01:59:03;5.92;;;5.03;;
70450;SDS011;58869;51.982;4.450;2023-04-25T02:01:29;5.76;;;4.84;;
70450;SDS011;58869;51.982;4.450;2023-04-25T02:03:55;5.33;;;4.58;;
70450;SDS011;58869;51.982;4.450;2023-04-25T02:06:20;5.62;;;4.77;;
70450;SDS011;58869;51.982;4.450;2023-04-25T02:08:46;5.56;;;4.71;;
70450;SDS011;58869;51.982;4.450;2023-04-25T02:11:11;5.34;;;4.44;;
70450;SDS011;58869;51.982;4.450;2023-04-25T02:13:37;5.50;;;4.49;;
70450;SDS011;58869;51.982;4.450;2023-04-25T02:16:03;5.80;;;4.83;;
70450;SDS011;58869;51.982;4.450;2023-04-25T02:18:31;5.04;;;4.26;;
70450;SDS011;58869;51.982;4.450;2023-04-25T02:21:00;5.50;;;4.62;;
70450;SDS011;58869;51.982;4.450;2023-04-25T02:23:32;5.58;;;4.70;;
70450;SDS011;58869;51.982;4.450;2023-04-25T02:25:57;5.44;;;4.62;;
70450;SDS011;58869;51.982;4.450;2023-04-25T02:28:32;5.26;;;4.40;;
70450;SDS011;58869;51.982;4.450;2023-04-25T02:30:57;5.22;;;4.33;;
70450;SDS011;58869;51.982;4.450;2023-04-25T02:33:23;5.24;;;4.22;;
70450;SDS011;58869;51.982;4.450;2023-04-25T02:35:48;5.28;;;4.20;;
70450;SDS011;58869;51.982;4.450;2023-04-25T02:38:17;5.45;;;4.29;;
70450;SDS011;58869;51.982;4.450;2023-04-25T02:40:43;5.38;;;4.20;;
70450;SDS011;58869;51.982;4.450;2023-04-25T02:43:08;5.89;;;4.57;;
70450;SDS011;58869;51.982;4.450;2023-04-25T02:45:35;6.04;;;4.61;;
70450;SDS011;58869;51.982;4.450;2023-04-25T02:48:03;5.81;;;4.52;;
70450;SDS011;58869;51.982;4.450;2023-04-25T02:50:44;5.61;;;4.41;;
70450;SDS011;58869;51.982;4.450;2023-04-25T02:53:10;5.57;;;4.45;;
70450;SDS011;58869;51.982;4.450;2023-04-25T02:55:35;5.54;;;4.43;;
70450;SDS011;58869;51.982;4.450;2023-04-25T02:58:04;5.15;;;4.14;;
70450;SDS011;58869;51.982;4.450;2023-04-25T03:00:30;6.16;;;4.96;;
70450;SDS011;58869;51.982;4.450;2023-04-25T03:02:55;5.34;;;4.26;;
70450;SDS011;58869;51.982;4.450;2023-04-25T03:05:21;5.09;;;3.97;;
70450;SDS011;58869;51.982;4.450;2023-04-25T03:07:46;5.42;;;4.18;;
70450;SDS011;58869;51.982;4.450;2023-04-25T03:10:12;5.56;;;4.19;;
70450;SDS011;58869;51.982;4.450;2023-04-25T03:12:46;5.32;;;4.07;;
70450;SDS011;58869;51.982;4.450;2023-04-25T03:15:19;5.24;;;3.97;;
70450;SDS011;58869;51.982;4.450;2023-04-25T03:17:45;5.16;;;3.89;;
70450;SDS011;58869;51.982;4.450;2023-04-25T03:20:11;5.24;;;3.99;;
70450;SDS011;58869;51.982;4.450;2023-04-25T03:22:36;5.11;;;3.92;;
70450;SDS011;58869;51.982;4.450;2023-04-25T03:25:02;5.07;;;3.94;;
70450;SDS011;58869;51.982;4.450;2023-04-25T03:27:30;4.97;;;3.88;;
70450;SDS011;58869;51.982;4.450;2023-04-25T03:29:58;4.73;;;3.70;;
70450;SDS011;58869;51.982;4.450;2023-04-25T03:32:32;4.93;;;3.79;;
70450;SDS011;58869;51.982;4.450;2023-04-25T03:34:58;4.94;;;3.81;;
70450;SDS011;58869;51.982;4.450;2023-04-25T03:37:24;4.60;;;3.66;;
70450;SDS011;58869;51.982;4.450;2023-04-25T03:39:49;4.64;;;3.62;;
70450;SDS011;58869;51.982;4.450;2023-04-25T03:45:43;4.57;;;3.59;;
70450;SDS011;58869;51.982;4.450;2023-04-25T03:48:11;4.79;;;3.66;;
70450;SDS011;58869;51.982;4.450;2023-04-25T03:50:36;4.95;;;3.74;;
70450;SDS011;58869;51.982;4.450;2023-04-25T03:53:08;5.02;;;3.69;;
70450;SDS011;58869;51.982;4.450;2023-04-25T03:55:34;5.61;;;4.10;;
70450;SDS011;58869;51.982;4.450;2023-04-25T03:58:09;5.37;;;3.94;;
70450;SDS011;58869;51.982;4.450;2023-04-25T04:00:40;5.59;;;4.18;;
70450;SDS011;58869;51.982;4.450;2023-04-25T04:03:06;5.14;;;3.84;;
70450;SDS011;58869;51.982;4.450;2023-04-25T04:05:52;5.03;;;3.82;;
70450;SDS011;58869;51.982;4.450;2023-04-25T04:11:12;4.92;;;3.65;;
70450;SDS011;58869;51.982;4.450;2023-04-25T04:17:02;5.19;;;3.86;;
70450;SDS011;58869;51.982;4.450;2023-04-25T04:19:27;4.91;;;3.73;;
70450;SDS011;58869;51.982;4.450;2023-04-25T04:21:56;5.29;;;3.79;;
70450;SDS011;58869;51.982;4.450;2023-04-25T04:24:50;5.08;;;3.67;;
70450;SDS011;58869;51.982;4.450;2023-04-25T04:30:57;4.49;;;3.36;;
70450;SDS011;58869;51.982;4.450;2023-04-25T04:33:23;4.41;;;3.38;;
70450;SDS011;58869;51.982;4.450;2023-04-25T04:35:49;4.17;;;3.21;;
70450;SDS011;58869;51.982;4.450;2023-04-25T04:38:17;4.14;;;3.26;;
70450;SDS011;58869;51.982;4.450;2023-04-25T04:40:43;4.12;;;3.23;;
70450;SDS011;58869;51.982;4.450;2023-04-25T04:43:09;4.21;;;3.22;;
70450;SDS011;58869;51.982;4.450;2023-04-25T04:45:35;4.65;;;3.53;;
70450;SDS011;58869;51.982;4.450;2023-04-25T04:48:16;4.42;;;3.33;;
70450;SDS011;58869;51.982;4.450;2023-04-25T04:50:57;4.05;;;3.11;;
70450;SDS011;58869;51.982;4.450;2023-04-25T04:53:31;4.27;;;3.28;;
70450;SDS011;58869;51.982;4.450;2023-04-25T04:58:58;4.39;;;3.39;;
70450;SDS011;58869;51.982;4.450;2023-04-25T05:01:36;4.91;;;3.73;;
70450;SDS011;58869;51.982;4.450;2023-04-25T05:07:46;5.63;;;4.03;;
70450;SDS011;58869;51.982;4.450;2023-04-25T05:10:12;5.99;;;4.34;;
70450;SDS011;58869;51.982;4.450;2023-04-25T05:12:43;6.01;;;4.55;;
70450;SDS011;58869;51.982;4.450;2023-04-25T05:15:15;6.00;;;4.62;;
70450;SDS011;58869;51.982;4.450;2023-04-25T05:20:43;6.27;;;5.13;;
70450;SDS011;58869;51.982;4.450;2023-04-25T05:23:18;5.35;;;4.46;;
70450;SDS011;58869;51.982;4.450;2023-04-25T05:25:46;5.24;;;4.39;;
70450;SDS011;58869;51.982;4.450;2023-04-25T05:28:12;5.24;;;4.28;;
70450;SDS011;58869;51.982;4.450;2023-04-25T05:30:40;5.84;;;4.75;;
70450;SDS011;58869;51.982;4.450;2023-04-25T05:33:14;5.79;;;4.83;;
70450;SDS011;58869;51.982;4.450;2023-04-25T05:35:42;4.96;;;4.19;;
70450;SDS011;58869;51.982;4.450;2023-04-25T05:38:08;4.57;;;3.60;;
70450;SDS011;58869;51.982;4.450;2023-04-25T05:40:49;4.27;;;3.33;;
70450;SDS011;58869;51.982;4.450;2023-04-25T05:43:14;3.54;;;2.74;;
70450;SDS011;58869;51.982;4.450;2023-04-25T05:45:49;3.92;;;3.03;;
70450;SDS011;58869;51.982;4.450;2023-04-25T05:52:06;3.55;;;2.75;;
70450;SDS011;58869;51.982;4.450;2023-04-25T05:57:48;3.66;;;2.73;;
70450;SDS011;58869;51.982;4.450;2023-04-25T06:00:13;3.94;;;2.91;;
70450;SDS011;58869;51.982;4.450;2023-04-25T06:02:41;3.41;;;2.59;;
70450;SDS011;58869;51.982;4.450;2023-04-25T06:05:07;3.09;;;2.40;;
70450;SDS011;58869;51.982;4.450;2023-04-25T06:11:03;2.82;;;2.19;;
70450;SDS011;58869;51.982;4.450;2023-04-25T06:13:29;2.83;;;2.23;;
70450;SDS011;58869;51.982;4.450;2023-04-25T06:15:55;2.59;;;2.09;;
70450;SDS011;58869;51.982;4.450;2023-04-25T06:18:33;2.83;;;2.32;;
70450;SDS011;58869;51.982;4.450;2023-04-25T06:21:16;2.63;;;2.17;;
70450;SDS011;58869;51.982;4.450;2023-04-25T06:23:44;2.48;;;2.06;;
70450;SDS011;58869;51.982;4.450;2023-04-25T06:26:10;2.90;;;2.39;;
70450;SDS011;58869;51.982;4.450;2023-04-25T06:35:08;2.38;;;2.00;;
70450;SDS011;58869;51.982;4.450;2023-04-25T06:37:33;2.45;;;2.06;;
70450;SDS011;58869;51.982;4.450;2023-04-25T06:40:16;2.28;;;1.91;;
70450;SDS011;58869;51.982;4.450;2023-04-25T06:45:19;2.40;;;2.07;;
70450;SDS011;58869;51.982;4.450;2023-04-25T06:47:44;2.38;;;2.05;;
70450;SDS011;58869;51.982;4.450;2023-04-25T06:50:10;2.36;;;2.01;;
70450;SDS011;58869;51.982;4.450;2023-04-25T06:52:36;2.67;;;2.23;;
70450;SDS011;58869;51.982;4.450;2023-04-25T06:55:03;2.97;;;2.38;;
70450;SDS011;58869;51.982;4.450;2023-04-25T06:57:29;2.69;;;2.22;;
70450;SDS011;58869;51.982;4.450;2023-04-25T07:00:09;2.85;;;2.39;;
70450;SDS011;58869;51.982;4.450;2023-04-25T07:02:36;2.84;;;2.40;;
70450;SDS011;58869;51.982;4.450;2023-04-25T07:05:02;2.77;;;2.37;;
70450;SDS011;58869;51.982;4.450;2023-04-25T07:07:33;2.65;;;2.26;;
70450;SDS011;58869;51.982;4.450;2023-04-25T07:09:59;2.56;;;2.21;;
70450;SDS011;58869;51.982;4.450;2023-04-25T07:12:30;2.57;;;2.24;;
70450;SDS011;58869;51.982;4.450;2023-04-25T07:14:58;2.61;;;2.26;;
70450;SDS011;58869;51.982;4.450;2023-04-25T07:17:24;2.90;;;2.45;;
70450;SDS011;58869;51.982;4.450;2023-04-25T07:19:50;2.96;;;2.45;;
70450;SDS011;58869;51.982;4.450;2023-04-25T07:22:16;2.92;;;2.45;;
70450;SDS011;58869;51.982;4.450;2023-04-25T07:24:42;2.70;;;2.25;;
70450;SDS011;58869;51.982;4.450;2023-04-25T07:27:19;3.11;;;2.54;;
70450;SDS011;58869;51.982;4.450;2023-04-25T07:30:14;3.07;;;2.45;;
70450;SDS011;58869;51.982;4.450;2023-04-25T07:32:40;2.97;;;2.38;;
70450;SDS011;58869;51.982;4.450;2023-04-25T07:35:17;2.92;;;2.29;;
70450;SDS011;58869;51.982;4.450;2023-04-25T07:40:34;3.40;;;2.53;;
70450;SDS011;58869;51.982;4.450;2023-04-25T07:43:02;3.18;;;2.37;;
70450;SDS011;58869;51.982;4.450;2023-04-25T07:45:44;3.18;;;2.31;;
70450;SDS011;58869;51.982;4.450;2023-04-25T07:49:08;3.20;;;2.23;;
70450;SDS011;58869;51.982;4.450;2023-04-25T07:51:41;3.67;;;2.51;;
70450;SDS011;58869;51.982;4.450;2023-04-25T07:54:08;3.96;;;2.69;;
70450;SDS011;58869;51.982;4.450;2023-04-25T07:56:34;3.57;;;2.38;;
70450;SDS011;58869;51.982;4.450;2023-04-25T07:59:01;3.53;;;2.35;;
70450;SDS011;58869;51.982;4.450;2023-04-25T08:01:33;4.63;;;3.06;;
70450;SDS011;58869;51.982;4.450;2023-04-25T08:03:59;4.51;;;2.97;;
70450;SDS011;58869;51.982;4.450;2023-04-25T08:06:24;3.95;;;2.61;;
70450;SDS011;58869;51.982;4.450;2023-04-25T08:08:53;3.68;;;2.47;;
70450;SDS011;58869;51.982;4.450;2023-04-25T08:11:19;3.65;;;2.47;;
70450;SDS011;58869;51.982;4.450;2023-04-25T08:14:20;4.17;;;2.83;;
70450;SDS011;58869;51.982;4.450;2023-04-25T08:16:46;3.72;;;2.51;;
70450;SDS011;58869;51.982;4.450;2023-04-25T08:19:12;3.93;;;2.66;;
70450;SDS011;58869;51.982;4.450;2023-04-25T08:21:40;3.44;;;2.31;;
70450;SDS011;58869;51.982;4.450;2023-04-25T08:24:09;4.16;;;2.76;;
70450;SDS011;58869;51.982;4.450;2023-04-25T08:29:14;4.20;;;2.75;;
70450;SDS011;58869;51.982;4.450;2023-04-25T08:31:46;4.07;;;2.71;;
70450;SDS011;58869;51.982;4.450;2023-04-25T08:34:15;3.41;;;2.26;;
70450;SDS011;58869;51.982;4.450;2023-04-25T08:36:45;4.21;;;2.78;;
70450;SDS011;58869;51.982;4.450;2023-04-25T08:39:10;3.59;;;2.37;;
70450;SDS011;58869;51.982;4.450;2023-04-25T08:41:42;3.45;;;2.27;;
70450;SDS011;58869;51.982;4.450;2023-04-25T08:44:21;4.16;;;2.73;;
70450;SDS011;58869;51.982;4.450;2023-04-25T08:46:47;4.15;;;2.71;;
70450;SDS011;58869;51.982;4.450;2023-04-25T08:49:16;4.55;;;3.00;;
70450;SDS011;58869;51.982;4.450;2023-04-25T08:51:44;4.71;;;3.11;;
70450;SDS011;58869;51.982;4.450;2023-04-25T08:54:18;4.94;;;3.25;;
70450;SDS011;58869;51.982;4.450;2023-04-25T08:56:48;4.50;;;2.97;;
70450;SDS011;58869;51.982;4.450;2023-04-25T08:59:14;4.00;;;2.66;;
70450;SDS011;58869;51.982;4.450;2023-04-25T09:01:42;3.29;;;2.22;;
70450;SDS011;58869;51.982;4.450;2023-04-25T09:04:12;3.85;;;2.64;;
70450;SDS011;58869;51.982;4.450;2023-04-25T09:06:37;3.73;;;2.56;;
70450;SDS011;58869;51.982;4.450;2023-04-25T09:09:05;3.30;;;2.28;;
70450;SDS011;58869;51.982;4.450;2023-04-25T09:11:33;2.88;;;1.98;;
70450;SDS011;58869;51.982;4.450;2023-04-25T09:17:03;3.08;;;2.07;;
70450;SDS011;58869;51.982;4.450;2023-04-25T09:21:57;3.40;;;2.26;;
70450;SDS011;58869;51.982;4.450;2023-04-25T09:24:37;3.70;;;2.43;;
70450;SDS011;58869;51.982;4.450;2023-04-25T09:27:09;3.64;;;2.39;;
70450;SDS011;58869;51.982;4.450;2023-04-25T09:29:37;3.53;;;2.36;;
70450;SDS011;58869;51.982;4.450;2023-04-25T09:32:28;3.53;;;2.41;;
70450;SDS011;58869;51.982;4.450;2023-04-25T09:34:55;4.08;;;2.74;;
70450;SDS011;58869;51.982;4.450;2023-04-25T09:37:22;3.60;;;2.41;;
70450;SDS011;58869;51.982;4.450;2023-04-25T09:39:52;3.29;;;2.19;;
70450;SDS011;58869;51.982;4.450;2023-04-25T09:42:33;3.35;;;2.23;;
70450;SDS011;58869;51.982;4.450;2023-04-25T09:45:00;3.42;;;2.32;;
70450;SDS011;58869;51.982;4.450;2023-04-25T09:47:36;3.32;;;2.26;;
70450;SDS011;58869;51.982;4.450;2023-04-25T09:50:13;3.37;;;2.30;;
70450;SDS011;58869;51.982;4.450;2023-04-25T09:52:40;3.30;;;2.31;;
70450;SDS011;58869;51.982;4.450;2023-04-25T09:55:06;3.77;;;2.64;;
70450;SDS011;58869;51.982;4.450;2023-04-25T09:57:32;4.01;;;2.73;;
70450;SDS011;58869;51.982;4.450;2023-04-25T09:59:57;4.60;;;3.07;;
70450;SDS011;58869;51.982;4.450;2023-04-25T10:06:11;4.03;;;2.71;;
70450;SDS011;58869;51.982;4.450;2023-04-25T10:08:39;3.79;;;2.56;;
70450;SDS011;58869;51.982;4.450;2023-04-25T10:11:08;3.76;;;2.58;;
70450;SDS011;58869;51.982;4.450;2023-04-25T10:13:35;3.36;;;2.33;;
70450;SDS011;58869;51.982;4.450;2023-04-25T10:16:03;3.39;;;2.34;;
70450;SDS011;58869;51.982;4.450;2023-04-25T10:18:30;4.07;;;2.79;;
70450;SDS011;58869;51.982;4.450;2023-04-25T10:21:04;4.46;;;2.95;;
70450;SDS011;58869;51.982;4.450;2023-04-25T10:23:39;4.63;;;3.05;;
70450;SDS011;58869;51.982;4.450;2023-04-25T10:26:06;4.93;;;3.21;;
70450;SDS011;58869;51.982;4.450;2023-04-25T10:32:32;4.53;;;3.01;;
70450;SDS011;58869;51.982;4.450;2023-04-25T10:35:09;4.92;;;3.25;;
70450;SDS011;58869;51.982;4.450;2023-04-25T10:38:09;4.87;;;3.17;;
70450;SDS011;58869;51.982;4.450;2023-04-25T10:43:46;4.12;;;2.70;;
70450;SDS011;58869;51.982;4.450;2023-04-25T10:53:33;3.64;;;2.46;;
70450;SDS011;58869;51.982;4.450;2023-04-25T10:56:17;3.99;;;2.71;;
70450;SDS011;58869;51.982;4.450;2023-04-25T10:58:45;3.72;;;2.54;;
70450;SDS011;58869;51.982;4.450;2023-04-25T11:01:20;3.88;;;2.63;;
70450;SDS011;58869;51.982;4.450;2023-04-25T11:03:56;3.71;;;2.52;;
70450;SDS011;58869;51.982;4.450;2023-04-25T11:07:00;3.40;;;2.34;;
70450;SDS011;58869;51.982;4.450;2023-04-25T11:09:33;3.96;;;2.73;;
70450;SDS011;58869;51.982;4.450;2023-04-25T11:12:06;3.93;;;2.72;;
70450;SDS011;58869;51.982;4.450;2023-04-25T11:14:33;3.78;;;2.61;;
70450;SDS011;58869;51.982;4.450;2023-04-25T11:17:01;3.39;;;2.33;;
70450;SDS011;58869;51.982;4.450;2023-04-25T11:19:30;3.37;;;2.36;;
70450;SDS011;58869;51.982;4.450;2023-04-25T11:22:01;2.95;;;2.08;;
70450;SDS011;58869;51.982;4.450;2023-04-25T11:24:31;2.90;;;2.09;;
70450;SDS011;58869;51.982;4.450;2023-04-25T11:26:59;3.40;;;2.42;;
70450;SDS011;58869;51.982;4.450;2023-04-25T11:29:30;3.05;;;2.13;;
70450;SDS011;58869;51.982;4.450;2023-04-25T11:32:10;3.25;;;2.26;;
70450;SDS011;58869;51.982;4.450;2023-04-25T11:34:39;3.09;;;2.19;;
70450;SDS011;58869;51.982;4.450;2023-04-25T11:37:04;3.11;;;2.25;;
70450;SDS011;58869;51.982;4.450;2023-04-25T11:39:45;2.88;;;2.11;;
70450;SDS011;58869;51.982;4.450;2023-04-25T11:42:13;3.48;;;2.52;;
70450;SDS011;58869;51.982;4.450;2023-04-25T11:44:39;3.44;;;2.45;;
70450;SDS011;58869;51.982;4.450;2023-04-25T11:47:05;3.23;;;2.27;;
70450;SDS011;58869;51.982;4.450;2023-04-25T11:49:40;3.28;;;2.28;;
70450;SDS011;58869;51.982;4.450;2023-04-25T11:52:08;3.35;;;2.37;;
70450;SDS011;58869;51.982;4.450;2023-04-25T11:54:35;3.51;;;2.50;;
70450;SDS011;58869;51.982;4.450;2023-04-25T11:57:18;3.47;;;2.50;;
70450;SDS011;58869;51.982;4.450;2023-04-25T11:59:45;3.56;;;2.52;;
70450;SDS011;58869;51.982;4.450;2023-04-25T12:02:23;4.00;;;2.77;;
70450;SDS011;58869;51.982;4.450;2023-04-25T12:05:08;3.53;;;2.43;;
70450;SDS011;58869;51.982;4.450;2023-04-25T12:07:47;3.10;;;2.18;;
70450;SDS011;58869;51.982;4.450;2023-04-25T12:10:14;3.65;;;2.56;;
70450;SDS011;58869;51.982;4.450;2023-04-25T12:12:41;4.43;;;3.09;;
70450;SDS011;58869;51.982;4.450;2023-04-25T12:15:09;3.83;;;2.64;;
70450;SDS011;58869;51.982;4.450;2023-04-25T12:17:46;3.61;;;2.55;;
70450;SDS011;58869;51.982;4.450;2023-04-25T12:20:15;3.40;;;2.45;;
70450;SDS011;58869;51.982;4.450;2023-04-25T12:22:52;2.93;;;2.14;;
70450;SDS011;58869;51.982;4.450;2023-04-25T12:25:34;3.03;;;2.24;;
70450;SDS011;58869;51.982;4.450;2023-04-25T12:28:19;2.82;;;2.19;;
70450;SDS011;58869;51.982;4.450;2023-04-25T12:31:06;2.81;;;2.17;;
70450;SDS011;58869;51.982;4.450;2023-04-25T12:33:36;3.03;;;2.33;;
70450;SDS011;58869;51.982;4.450;2023-04-25T12:36:03;2.59;;;1.95;;
70450;SDS011;58869;51.982;4.450;2023-04-25T12:38:37;2.85;;;2.12;;
70450;SDS011;58869;51.982;4.450;2023-04-25T12:41:09;2.78;;;2.03;;
70450;SDS011;58869;51.982;4.450;2023-04-25T12:43:35;3.02;;;2.18;;
70450;SDS011;58869;51.982;4.450;2023-04-25T12:46:06;3.18;;;2.32;;
70450;SDS011;58869;51.982;4.450;2023-04-25T12:48:32;3.16;;;2.28;;
70450;SDS011;58869;51.982;4.450;2023-04-25T12:50:58;3.41;;;2.42;;
70450;SDS011;58869;51.982;4.450;2023-04-25T12:57:27;3.22;;;2.35;;
70450;SDS011;58869;51.982;4.450;2023-04-25T13:00:19;2.88;;;2.11;;
70450;SDS011;58869;51.982;4.450;2023-04-25T13:02:45;3.18;;;2.32;;
70450;SDS011;58869;51.982;4.450;2023-04-25T13:05:23;3.38;;;2.49;;
70450;SDS011;58869;51.982;4.450;2023-04-25T13:07:51;3.56;;;2.67;;
70450;SDS011;58869;51.982;4.450;2023-04-25T13:10:17;3.17;;;2.37;;
70450;SDS011;58869;51.982;4.450;2023-04-25T13:12:43;2.89;;;2.18;;
70450;SDS011;58869;51.982;4.450;2023-04-25T13:15:12;3.13;;;2.34;;
70450;SDS011;58869;51.982;4.450;2023-04-25T13:17:51;2.98;;;2.27;;
70450;SDS011;58869;51.982;4.450;2023-04-25T13:20:19;3.13;;;2.40;;
70450;SDS011;58869;51.982;4.450;2023-04-25T13:22:47;3.07;;;2.27;;
70450;SDS011;58869;51.982;4.450;2023-04-25T13:25:23;3.07;;;2.26;;
70450;SDS011;58869;51.982;4.450;2023-04-25T13:28:01;3.18;;;2.36;;
70450;SDS011;58869;51.982;4.450;2023-04-25T13:30:30;2.98;;;2.27;;
70450;SDS011;58869;51.982;4.450;2023-04-25T13:33:09;2.89;;;2.19;;
70450;SDS011;58869;51.982;4.450;2023-04-25T13:35:49;2.73;;;2.11;;
70450;SDS011;58869;51.982;4.450;2023-04-25T13:38:27;2.87;;;2.25;;
70450;SDS011;58869;51.982;4.450;2023-04-25T13:40:58;3.20;;;2.43;;
70450;SDS011;58869;51.982;4.450;2023-04-25T13:47:02;3.41;;;2.54;;
70450;SDS011;58869;51.982;4.450;2023-04-25T13:49:32;3.49;;;2.58;;
70450;SDS011;58869;51.982;4.450;2023-04-25T13:52:09;3.39;;;2.52;;
70450;SDS011;58869;51.982;4.450;2023-04-25T13:55:16;3.25;;;2.49;;
70450;SDS011;58869;51.982;4.450;2023-04-25T13:57:47;3.02;;;2.36;;
70450;SDS011;58869;51.982;4.450;2023-04-25T14:00:23;3.39;;;2.61;;
70450;SDS011;58869;51.982;4.450;2023-04-25T14:02:50;3.24;;;2.48;;
70450;SDS011;58869;51.982;4.450;2023-04-25T14:05:21;3.30;;;2.50;;
70450;SDS011;58869;51.982;4.450;2023-04-25T14:07:52;3.19;;;2.42;;
70450;SDS011;58869;51.982;4.450;2023-04-25T14:10:23;2.88;;;2.25;;
70450;SDS011;58869;51.982;4.450;2023-04-25T14:12:49;2.65;;;2.10;;
70450;SDS011;58869;51.982;4.450;2023-04-25T14:15:14;2.75;;;2.20;;
70450;SDS011;58869;51.982;4.450;2023-04-25T14:17:42;2.73;;;2.20;;
70450;SDS011;58869;51.982;4.450;2023-04-25T14:20:10;2.57;;;1.99;;
70450;SDS011;58869;51.982;4.450;2023-04-25T14:22:36;2.49;;;1.94;;
70450;SDS011;58869;51.982;4.450;2023-04-25T14:25:09;2.72;;;2.14;;
70450;SDS011;58869;51.982;4.450;2023-04-25T14:27:37;2.38;;;1.92;;
70450;SDS011;58869;51.982;4.450;2023-04-25T14:30:12;2.37;;;1.89;;
70450;SDS011;58869;51.982;4.450;2023-04-25T14:32:42;2.51;;;2.03;;
70450;SDS011;58869;51.982;4.450;2023-04-25T14:35:11;2.71;;;2.18;;
70450;SDS011;58869;51.982;4.450;2023-04-25T14:44:19;2.22;;;1.85;;
70450;SDS011;58869;51.982;4.450;2023-04-25T14:46:45;2.94;;;2.39;;
70450;SDS011;58869;51.982;4.450;2023-04-25T14:49:10;2.77;;;2.23;;
70450;SDS011;58869;51.982;4.450;2023-04-25T14:51:46;2.62;;;2.08;;
70450;SDS011;58869;51.982;4.450;2023-04-25T14:57:10;2.78;;;2.23;;
70450;SDS011;58869;51.982;4.450;2023-04-25T15:02:41;2.65;;;2.18;;
70450;SDS011;58869;51.982;4.450;2023-04-25T15:05:17;2.60;;;2.19;;
70450;SDS011;58869;51.982;4.450;2023-04-25T15:07:54;3.03;;;2.51;;
70450;SDS011;58869;51.982;4.450;2023-04-25T15:10:20;3.32;;;2.66;;
70450;SDS011;58869;51.982;4.450;2023-04-25T15:12:47;3.38;;;2.77;;
70450;SDS011;58869;51.982;4.450;2023-04-25T15:15:29;2.99;;;2.45;;
70450;SDS011;58869;51.982;4.450;2023-04-25T15:26:13;2.83;;;2.36;;
70450;SDS011;58869;51.982;4.450;2023-04-25T15:28:39;2.53;;;2.14;;
70450;SDS011;58869;51.982;4.450;2023-04-25T15:31:05;2.25;;;1.86;;
70450;SDS011;58869;51.982;4.450;2023-04-25T15:33:45;2.56;;;2.09;;
70450;SDS011;58869;51.982;4.450;2023-04-25T15:42:49;2.90;;;2.36;;
70450;SDS011;58869;51.982;4.450;2023-04-25T15:45:16;2.30;;;1.90;;
70450;SDS011;58869;51.982;4.450;2023-04-25T15:47:49;2.41;;;2.05;;
70450;SDS011;58869;51.982;4.450;2023-04-25T15:50:22;2.44;;;2.08;;
70450;SDS011;58869;51.982;4.450;2023-04-25T15:55:40;2.44;;;2.01;;
70450;SDS011;58869;51.982;4.450;2023-04-25T16:04:22;2.39;;;2.03;;
70450;SDS011;58869;51.982;4.450;2023-04-25T16:10:11;3.02;;;2.42;;
70450;SDS011;58869;51.982;4.450;2023-04-25T16:12:46;2.90;;;2.28;;
70450;SDS011;58869;51.982;4.450;2023-04-25T16:22:11;3.53;;;2.79;;
70450;SDS011;58869;51.982;4.450;2023-04-25T16:27:34;3.07;;;2.54;;
70450;SDS011;58869;51.982;4.450;2023-04-25T16:30:00;2.95;;;2.44;;
70450;SDS011;58869;51.982;4.450;2023-04-25T16:32:35;2.75;;;2.31;;
70450;SDS011;58869;51.982;4.450;2023-04-25T16:35:22;2.25;;;1.93;;
70450;SDS011;58869;51.982;4.450;2023-04-25T16:37:56;2.48;;;2.14;;
70450;SDS011;58869;51.982;4.450;2023-04-25T16:43:29;2.24;;;1.92;;
70450;SDS011;58869;51.982;4.450;2023-04-25T16:46:08;2.57;;;2.18;;
70450;SDS011;58869;51.982;4.450;2023-04-25T16:48:33;2.65;;;2.21;;
70450;SDS011;58869;51.982;4.450;2023-04-25T16:51:10;2.75;;;2.30;;
70450;SDS011;58869;51.982;4.450;2023-04-25T16:54:15;2.44;;;2.04;;
70450;SDS011;58869;51.982;4.450;2023-04-25T16:56:57;2.64;;;2.17;;
70450;SDS011;58869;51.982;4.450;2023-04-25T16:59:33;3.12;;;2.47;;
70450;SDS011;58869;51.982;4.450;2023-04-25T17:02:16;3.24;;;2.58;;
70450;SDS011;58869;51.982;4.450;2023-04-25T17:04:42;3.08;;;2.44;;
70450;SDS011;58869;51.982;4.450;2023-04-25T17:07:10;3.63;;;2.87;;
70450;SDS011;58869;51.982;4.450;2023-04-25T17:09:36;3.14;;;2.51;;
70450;SDS011;58869;51.982;4.450;2023-04-25T17:12:07;3.61;;;2.97;;
70450;SDS011;58869;51.982;4.450;2023-04-25T17:14:33;3.57;;;2.91;;
70450;SDS011;58869;51.982;4.450;2023-04-25T17:17:08;3.47;;;2.89;;
70450;SDS011;58869;51.982;4.450;2023-04-25T17:19:34;3.41;;;2.87;;
70450;SDS011;58869;51.982;4.450;2023-04-25T17:22:01;3.17;;;2.76;;
70450;SDS011;58869;51.982;4.450;2023-04-25T17:24:29;3.55;;;3.16;;
70450;SDS011;58869;51.982;4.450;2023-04-25T17:27:07;3.45;;;3.03;;